• Join FlightAware (Why Join?)
  • Login
  • US Flag 
05:32AM EDT


 

Airport Tracker/Info


-or-


 

Live Flight TrackerFlight Track Log ✈ SWA539 ✈ 10-Apr-2013 ✈ KMCI - KLAX

Flight Track Log - Related Links

Times and Time Zones

All times are in EDT time to prevent confusion due to time zone crossing. See the SWA539 flight status page for this flight to view local times or setup timezone preferences in your user account.

Time Position Orientation Groundspeed Altitude Reporting Facility
EDT Latitude Longitude Course Direction KTS MPH feet Rate Location/Type
06:54PM 39.3167 -94.7167 322° Northwest 166 191 1,900  Level Kansas City TRACON
06:55PM 39.3667 -94.7667 322° Northwest 229 264 4,400 1,920 Climbing Kansas City TRACON
06:57PM 39.3642 -94.8778 268° West 270 311 6,900 2,700 Climbing Kansas City Center
06:58PM 39.3586 -94.9892 266° West 277 319 10,800 3,240 Climbing Kansas City Center
06:59PM 39.3547 -95.0931 267° West 302 348 13,600 3,120 Climbing Kansas City Center
07:00PM 39.3492 -95.2178 267° West 302 348 17,100 2,820 Climbing Kansas City Center
07:01PM 39.3431 -95.3325 266° West 321 369 19,500 2,340 Climbing Kansas City Center
07:02PM 39.3381 -95.4517 267° West 331 381 22,000 1,920 Climbing Kansas City Center
07:03PM 39.3328 -95.5692 267° West 344 396 23,500 1,620 Climbing Kansas City Center
07:04PM 39.3264 -95.7153 267° West 365 420 25,400 1,620 Climbing Kansas City Center
07:05PM 39.3181 -95.8453 265° West 378 435 26,900 1,020 Climbing Kansas City Center
07:06PM 39.3097 -96.0056 266° West 401 461 27,600 900 Climbing Kansas City Center
07:07PM 39.3025 -96.1525 266° West 426 490 28,800 1,380 Climbing Kansas City Center
07:08PM 39.3031 -96.3083 270° West 433 498 30,600 1,680 Climbing Kansas City Center
07:09PM 39.3028 -96.4603 270° West 428 493 32,300 1,440 Climbing Kansas City Center
07:10PM 39.3053 -96.6433 271° West 425 489 33,600 1,080 Climbing Kansas City Center
07:11PM 39.3047 -96.7900 270° West 428 493 34,600 720 Climbing Kansas City Center
07:12PM 39.3050 -96.9631 270° West 430 495 35,100 660 Climbing Kansas City Center
07:13PM 39.3053 -97.1156 270° West 441 507 36,000 420 Climbing Kansas City Center
07:14PM 39.3058 -97.2844 270° West 428 493 36,000  Level Kansas City Center
07:15PM 39.3036 -97.4319 269° West 428 493 36,000  Level Kansas City Center
07:16PM 39.3039 -97.5833 270° West 429 494 36,000  Level Kansas City Center
07:17PM 39.3031 -97.7381 270° West 430 495 36,000  Level Kansas City Center
07:18PM 39.3014 -97.8997 269° West 432 497 36,000  Level Kansas City Center
07:19PM 39.3000 -98.0719 269° West 431 496 36,000  Level Kansas City Center
07:20PM 39.2989 -98.2353 270° West 432 497 36,000  Level Kansas City Center
07:22PM 39.2967 -98.3889 269° West 428 493 36,000  Level Kansas City Center
07:23PM 39.2942 -98.5514 269° West 429 494 36,000  Level Kansas City Center
07:24PM 39.2936 -98.7111 270° West 429 494 36,000  Level Kansas City Center
07:25PM 39.2906 -98.8583 269° West 430 495 36,000  Level Kansas City Center
07:26PM 39.2878 -99.0147 269° West 435 501 36,000  Level Kansas City Center
07:27PM 39.2844 -99.1747 269° West 436 502 36,000  Level Kansas City Center
07:27PM 39.2819 -99.2461 267° West 440 506 36,000  Level Denver Center
07:28PM 39.2794 -99.3967 269° West 440 506 36,000  Level Denver Center
07:29PM 39.2756 -99.5481 268° West 440 506 36,000  Level Denver Center
07:30PM 39.2722 -99.7247 269° West 440 506 36,000  Level Denver Center
07:31PM 39.2681 -99.8761 268° West 440 506 36,000  Level Denver Center
07:32PM 39.2633 -100.0528 268° West 441 507 36,000  Level Denver Center
07:33PM 39.2589 -100.2044 268° West 440 506 36,000  Level Denver Center
07:34PM 39.2325 -100.3531 257° West 445 512 36,000  Level Denver Center
07:35PM 39.1969 -100.5211 255° West 436 502 36,000  Level Denver Center
07:36PM 39.1653 -100.6683 255° West 442 509 36,000  Level Denver Center
07:37PM 39.1294 -100.8369 255° West 439 505 36,000  Level Denver Center
07:38PM 39.0983 -100.9825 255° West 440 506 36,000  Level Denver Center
07:39PM 39.0611 -101.1519 254° West 440 506 36,000  Level Denver Center
07:40PM 39.0300 -101.2939 254° West 438 504 36,000  Level Denver Center
07:41PM 38.9919 -101.4644 254° West 440 506 36,000  Level Denver Center
07:42PM 38.9594 -101.6114 254° West 445 512 36,000  Level Denver Center
07:43PM 38.9222 -101.7814 254° West 444 511 36,000  Level Denver Center
07:44PM 38.8886 -101.9283 254° West 447 514 36,000  Level Denver Center
07:45PM 38.8550 -102.0747 254° West 448 516 36,000  Level Denver Center
07:47PM 38.8133 -102.2458 253° West 450 518 36,000  Level Denver Center
07:48PM 38.7675 -102.3872 247° West 449 517 36,000  Level Denver Center
07:49PM 38.7136 -102.5528 247° West 453 521 36,000  Level Denver Center
07:50PM 38.6681 -102.6936 248° West 448 516 36,000  Level Denver Center
07:51PM 38.6197 -102.8450 248° West 448 516 36,000  Level Denver Center
07:52PM 38.5717 -102.9942 248° West 449 517 36,000  Level Denver Center
07:53PM 38.5147 -103.1608 246° West 447 514 36,000  Level Denver Center
07:54PM 38.4700 -103.3006 248° West 444 511 36,000  Level Denver Center
07:55PM 38.4175 -103.4608 247° West 446 513 36,000  Level Denver Center
07:56PM 38.3675 -103.6083 247° West 447 514 36,000  Level Denver Center
07:57PM 38.3203 -103.7492 247° West 453 521 36,000  Level Denver Center
07:58PM 38.2656 -103.9119 247° West 452 520 36,000  Level Denver Center
07:59PM 38.2167 -104.0542 246° West 458 527 36,000  Level Denver Center
08:00PM 38.1769 -104.1722 247° West 457 526 36,000  Level Denver Center
08:01PM 38.1042 -104.3875 247° West 463 533 36,000  Level Denver Center
08:02PM 38.0467 -104.5539 246° West 465 535 36,000  Level Denver Center
08:03PM 37.9958 -104.6989 246° West 471 542 36,000  Level Denver Center
08:04PM 37.9378 -104.8675 246° West 470 541 36,000  Level Denver Center
08:05PM 37.8869 -105.0133 246° West 473 544 36,000  Level Denver Center
08:06PM 37.8267 -105.1839 246° West 477 549 36,000  Level Denver Center
08:07PM 37.7756 -105.3286 246° West 471 542 36,000  Level Denver Center
08:08PM 37.7153 -105.4972 246° West 472 543 36,000  Level Denver Center
08:09PM 37.6625 -105.6431 245° Southwest 476 548 36,000  Level Denver Center
08:10PM 37.6014 -105.8125 246° West 477 549 36,000  Level Denver Center
08:11PM 37.5508 -105.9542 246° West 467 537 36,000  Level Denver Center
08:13PM 37.4914 -106.1167 245° Southwest 472 543 36,000  Level Denver Center
08:14PM 37.4386 -106.2603 245° Southwest 473 544 36,000  Level Denver Center
08:15PM 37.3764 -106.4281 245° Southwest 474 545 36,000  Level Denver Center
08:16PM 37.3322 -106.5461 245° Southwest 472 543 36,000  Level Denver Center
08:17PM 37.2625 -106.7375 245° Southwest 473 544 36,000  Level Denver Center
08:18PM 37.2094 -106.8817 245° Southwest 475 547 36,000  Level Denver Center
08:19PM 37.1558 -107.0264 245° Southwest 477 549 36,000  Level Denver Center
08:20PM 37.0933 -107.1925 245° Southwest 474 545 36,000  Level Denver Center
08:21PM 37.0400 -107.3353 245° Southwest 473 544 36,000  Level Denver Center
08:22PM 37.0039 -107.5078 255° West 457 526 36,000  Level Denver Center
08:23PM 36.9742 -107.6586 256° West 464 534 36,000  Level Denver Center
08:24PM 36.9386 -107.8336 256° West 467 537 36,000  Level Denver Center
08:25PM 36.9083 -107.9842 256° West 467 537 36,000  Level Denver Center
08:26PM 36.8722 -108.1603 256° West 470 541 36,000  Level Denver Center
08:27PM 36.8411 -108.3100 255° West 467 537 36,000  Level Denver Center
08:28PM 36.8103 -108.4600 256° West 466 536 36,000  Level Denver Center
08:29PM 36.7739 -108.6319 255° West 463 533 36,000  Level Denver Center
08:30PM 36.7417 -108.7819 255° West 466 536 36,000  Level Denver Center
08:32PM 36.6731 -109.1067 255° West 469 540 36,000  Level Denver Center
08:33PM 36.6358 -109.2803 255° West 467 537 36,000  Level Denver Center
08:34PM 36.6036 -109.4264 255° West 461 531 36,000  Level Denver Center
08:35PM 36.5664 -109.5981 255° West 462 532 36,000  Level Denver Center
08:36PM 36.5392 -109.7194 254° West 460 529 36,000  Level Denver Center
08:37PM 36.4956 -109.9156 255° West 462 532 36,000  Level Denver Center
08:38PM 36.4644 -110.0614 255° West 459 528 36,000  Level Denver Center
08:39PM 36.4294 -110.2200 255° West 456 525 36,000  Level Denver Center
08:40PM 36.3956 -110.3706 254° West 455 524 36,000  Level Denver Center
08:41PM 36.3608 -110.5206 254° West 453 521 36,000  Level Denver Center
08:42PM 36.3269 -110.6697 254° West 450 518 36,000  Level Denver Center
08:43PM 36.2908 -110.8186 253° West 451 519 36,000  Level Denver Center
08:44PM 36.2508 -110.9961 254° West 447 514 36,000  Level Denver Center
08:45PM 36.2164 -111.1428 254° West 444 511 36,000  Level Denver Center
08:46PM 36.1794 -111.2903 253° West 446 513 36,000  Level Denver Center
08:47PM 36.1297 -111.4369 247° West 456 525 36,000  Level Denver Center
08:49PM 36.0828 -111.5831 248° West 458 527 36,000  Level Denver Center
08:50PM 36.0353 -111.7286 248° West 458 527 36,000  Level Denver Center
08:51PM 35.9867 -111.8733 247° West 456 525 36,000  Level Denver Center
08:52PM 35.9392 -112.0178 248° West 455 524 36,000  Level Denver Center
08:53PM 35.8822 -112.1892 248° West 451 519 36,000  Level Denver Center
08:54PM 35.8347 -112.3322 248° West 452 520 36,000  Level Denver Center
08:55PM 35.7814 -112.4892 247° West 446 513 36,000  Level Los Angeles Center
08:56PM 35.7350 -112.6292 248° West 447 514 36,000  Level Los Angeles Center
08:57PM 35.6819 -112.7839 247° West 445 512 36,000  Level Los Angeles Center
08:58PM 35.6267 -112.9461 247° West 448 516 36,000  Level Los Angeles Center
08:59PM 35.5789 -113.0869 247° West 447 514 36,000  Level Los Angeles Center
09:00PM 35.5308 -113.2261 247° West 443 510 36,000  Level Los Angeles Center
09:01PM 35.4803 -113.3742 247° West 442 509 36,000  Level Los Angeles Center
09:02PM 35.4319 -113.5119 247° West 443 510 36,000  Level Los Angeles Center
09:03PM 35.3836 -113.6508 247° West 445 512 36,000  Level Los Angeles Center
09:04PM 35.3353 -113.7875 247° West 442 509 36,000  Level Los Angeles Center
09:05PM 35.2775 -113.9531 247° West 448 516 36,000  Level Los Angeles Center
09:06PM 35.2289 -114.0903 247° West 444 511 36,000  Level Los Angeles Center
09:07PM 35.1794 -114.2308 247° West 446 513 36,000  Level Los Angeles Center
09:08PM 35.1306 -114.3675 246° West 440 506 36,000  Level Los Angeles Center
09:09PM 35.0819 -114.5047 247° West 439 505 36,000  Level Los Angeles Center
09:10PM 35.0317 -114.6433 246° West 443 510 36,000  Level Los Angeles Center
09:11PM 34.9822 -114.7794 246° West 441 507 36,000  Level Los Angeles Center
09:12PM 34.9228 -114.9428 246° West 440 506 36,000  Level Los Angeles Center
09:13PM 34.8750 -115.0739 246° West 429 494 36,000  Level Los Angeles Center
09:15PM 34.8264 -115.2097 246° West 432 497 36,000  Level Los Angeles Center
09:16PM 34.7769 -115.3439 246° West 434 499 36,000  Level Los Angeles Center
09:17PM 34.7275 -115.4769 246° West 432 497 36,000 -180 Level Los Angeles Center
09:18PM 34.6817 -115.5997 246° West 431 496 35,700 -780 Descending Los Angeles Center
09:19PM 34.6233 -115.7583 246° West 429 494 34,500 -1,080 Descending Los Angeles Center
09:20PM 34.5731 -115.8914 245° Southwest 433 498 33,500 -960 Descending Los Angeles Center
09:21PM 34.5233 -116.0244 246° West 434 499 32,600 -960 Descending Los Angeles Center
09:22PM 34.4719 -116.1589 245° Southwest 438 504 31,600 -960 Descending Los Angeles Center
09:23PM 34.4206 -116.2919 245° Southwest 437 503 30,700 -960 Descending Los Angeles Center
09:24PM 34.3492 -116.4183 236° Southwest 457 526 29,700 -1,620 Descending Los Angeles Center
09:25PM 34.2772 -116.5456 236° Southwest 457 526 27,400 -2,100 Descending Los Angeles Center
09:26PM 34.2203 -116.6733 242° Southwest 433 498 25,400 -2,220 Descending Los Angeles Center
09:27PM 34.1775 -116.8381 253° West 426 490 22,900 -2,340 Descending Los Angeles Center
09:28PM 34.1439 -116.9694 253° West 412 474 20,600 -1,860 Descending Los Angeles Center
09:29PM 34.1000 -117.1167 250° West 377 434 18,900 -1,440 Descending Southern California TRACON
09:30PM 34.0500 -117.2333 243° Southwest 371 427 17,600 -1,740 Descending Southern California TRACON
09:31PM 34.0333 -117.3500 260° West 353 406 15,500 -2,100 Descending Southern California TRACON
09:32PM 34.0333 -117.4667 270° West 345 397 13,400 -1,920 Descending Southern California TRACON
09:33PM 34.0333 -117.5667 270° West 327 376 11,700 -1,560 Descending Southern California TRACON
09:34PM 34.0167 -117.6833 260° West 311 358 10,300 -1,020 Descending Southern California TRACON
09:35PM 34.0167 -117.7833 270° West 291 335 9,700 -780 Descending Southern California TRACON
09:36PM 34.0000 -117.8833 259° West 264 304 8,800 -1,080 Descending Southern California TRACON
09:37PM 34.0000 -117.9667 270° West 259 298 7,600 -1,140 Descending Southern California TRACON
09:38PM 33.9833 -118.0500 256° West 250 288 6,600 -780 Descending Southern California TRACON
09:39PM 33.9833 -118.1167 270° West 213 245 6,100 -1,020 Descending Southern California TRACON
09:40PM 33.9667 -118.1833 253° West 185 213 4,600 -1,440 Descending Southern California TRACON
09:41PM 33.9667 -118.2333 270° West 169 194 3,400 -1,200 Descending Southern California TRACON
09:41PM 33.9681 -118.2503 276° West 176 203 3,200 -900 Descending Los Angeles Center
09:42PM 33.9628 -118.3014 263° West 166 191 2,200 -1,020 Descending Los Angeles Center
09:43PM 33.9583 -118.3417 262° West 141 162 1,200 -840 Descending Los Angeles Center
09:44PM 33.9553 -118.3833 265° West 129 148 500 -540 Descending Los Angeles Center
09:45PM 33.9486 -118.4342 261° West 129 148 200 -300 Descending Los Angeles Center
09:47PM 33.9425 -118.4081 259° West  Level Estimated
09:54PM 33.9425 -118.4081 259° West  Level Estimated